createdAt,value
2017-08-23T00:01:25.381Z,12.00
2017-08-23T00:03:52.950Z,11.90
2017-08-23T00:06:20.527Z,11.90
2017-08-23T00:08:48.180Z,11.90
2017-08-23T00:11:15.779Z,11.90
2017-08-23T00:13:43.375Z,11.90
2017-08-23T00:16:11.014Z,11.90
2017-08-23T00:18:38.592Z,11.90
2017-08-23T00:21:06.190Z,11.80
2017-08-23T00:23:34.039Z,11.80
2017-08-23T00:26:01.628Z,11.80
2017-08-23T00:28:29.216Z,11.80
2017-08-23T00:30:56.834Z,11.80
2017-08-23T00:33:25.179Z,11.70
2017-08-23T00:35:52.764Z,11.70
2017-08-23T00:38:20.619Z,11.70
2017-08-23T00:40:48.215Z,11.70
2017-08-23T00:43:15.812Z,11.60
2017-08-23T00:45:43.833Z,11.60
2017-08-23T00:48:11.421Z,11.60
2017-08-23T00:50:39.000Z,11.60
2017-08-23T00:53:06.639Z,11.60
2017-08-23T00:55:34.213Z,11.60
2017-08-23T00:58:01.795Z,11.60
2017-08-23T01:00:29.418Z,11.60
2017-08-23T01:02:57.000Z,11.60
2017-08-23T01:05:24.588Z,11.60
2017-08-23T01:07:52.204Z,11.60
2017-08-23T01:10:19.799Z,11.60
2017-08-23T01:12:47.374Z,11.60
2017-08-23T01:15:15.014Z,11.50
2017-08-23T01:17:42.613Z,11.50
2017-08-23T01:20:10.204Z,11.50
2017-08-23T01:22:37.838Z,11.50
2017-08-23T01:25:05.431Z,11.40
2017-08-23T01:27:33.005Z,11.40
2017-08-23T01:30:00.674Z,11.40
2017-08-23T01:32:28.264Z,11.40
2017-08-23T01:34:55.838Z,11.30
2017-08-23T01:37:23.678Z,11.30
2017-08-23T01:39:51.282Z,11.30
2017-08-23T01:42:18.866Z,11.20
2017-08-23T01:44:47.273Z,11.20
2017-08-23T01:47:14.851Z,11.20
2017-08-23T01:49:42.441Z,11.20
2017-08-23T01:52:10.085Z,11.10
2017-08-23T01:54:37.687Z,11.10
2017-08-23T01:57:05.275Z,11.10
2017-08-23T01:59:32.912Z,11.00
2017-08-23T02:02:00.515Z,11.00
2017-08-23T02:04:28.109Z,11.00
2017-08-23T02:06:55.948Z,11.00
2017-08-23T02:09:23.537Z,11.00
2017-08-23T02:11:51.132Z,11.00
2017-08-23T02:14:18.780Z,11.00
2017-08-23T02:16:46.354Z,11.00
2017-08-23T02:19:13.952Z,10.90
2017-08-23T02:21:42.348Z,10.90
2017-08-23T02:24:09.946Z,10.90
2017-08-23T02:26:38.304Z,10.90
2017-08-23T02:29:05.958Z,10.90
2017-08-23T02:31:33.549Z,10.90
2017-08-23T02:34:01.135Z,10.90
2017-08-23T02:36:28.778Z,10.90
2017-08-23T02:38:56.357Z,10.80
2017-08-23T02:41:23.955Z,10.80
2017-08-23T02:43:51.765Z,10.80
2017-08-23T02:46:19.407Z,10.80
2017-08-23T02:48:46.987Z,10.80
2017-08-23T02:51:14.620Z,10.70
2017-08-23T02:53:42.209Z,10.70
2017-08-23T02:56:09.805Z,10.70
2017-08-23T02:58:37.627Z,10.70
2017-08-23T03:01:05.230Z,10.70
2017-08-23T03:03:32.810Z,10.70
2017-08-23T03:06:00.673Z,10.60
2017-08-23T03:08:28.261Z,10.60
2017-08-23T03:10:55.842Z,10.60
2017-08-23T03:13:23.709Z,10.60
2017-08-23T03:15:51.300Z,10.60
2017-08-23T03:18:18.917Z,10.60
2017-08-23T03:20:46.543Z,10.50
2017-08-23T03:23:14.163Z,10.50
2017-08-23T03:25:42.535Z,10.50
2017-08-23T03:28:10.184Z,10.50
2017-08-23T03:30:37.783Z,10.50
2017-08-23T03:33:05.377Z,10.50
2017-08-23T03:35:33.214Z,10.50
2017-08-23T03:38:00.803Z,10.50
2017-08-23T03:40:29.594Z,10.50
2017-08-23T03:42:57.499Z,10.50
2017-08-23T03:45:25.089Z,10.50
2017-08-23T03:47:52.666Z,10.40
2017-08-23T03:50:20.353Z,10.40
2017-08-23T03:52:47.967Z,10.40
2017-08-23T03:55:16.320Z,10.40
2017-08-23T03:57:44.201Z,10.40
2017-08-23T04:00:11.787Z,10.50
2017-08-23T04:02:39.378Z,10.50
2017-08-23T04:05:07.246Z,10.50
2017-08-23T04:07:34.848Z,10.50
2017-08-23T04:10:02.430Z,10.50
2017-08-23T04:12:30.054Z,10.50
2017-08-23T04:14:57.654Z,10.60
2017-08-23T04:17:25.295Z,10.60
2017-08-23T04:19:52.936Z,10.60
2017-08-23T04:22:20.622Z,10.60
2017-08-23T04:24:48.216Z,10.60
2017-08-23T04:27:15.856Z,10.70
2017-08-23T04:29:43.438Z,10.70
2017-08-23T04:32:11.034Z,10.80
2017-08-23T04:34:38.671Z,10.80
2017-08-23T04:37:06.265Z,10.90
2017-08-23T04:39:33.848Z,11.00
2017-08-23T04:42:01.725Z,11.00
2017-08-23T04:44:29.339Z,11.00
2017-08-23T04:46:56.928Z,11.10
2017-08-23T04:49:24.738Z,11.10
2017-08-23T04:51:52.338Z,11.20
2017-08-23T04:54:19.922Z,11.20
2017-08-23T04:56:47.561Z,11.30
2017-08-23T04:59:15.927Z,12.10
2017-08-23T05:01:43.515Z,12.10
2017-08-23T05:04:11.332Z,13.30
2017-08-23T05:06:38.903Z,14.70
2017-08-23T05:09:06.496Z,16.20
2017-08-23T05:11:34.150Z,17.50
2017-08-23T05:14:02.503Z,19.80
2017-08-23T05:16:30.070Z,19.80
2017-08-23T05:18:57.681Z,21.00
2017-08-23T05:21:25.268Z,22.10
2017-08-23T05:23:52.848Z,23.00
2017-08-23T05:26:20.632Z,23.80
2017-08-23T05:28:48.207Z,24.70
2017-08-23T05:31:15.784Z,25.90
2017-08-23T05:33:43.426Z,26.60
2017-08-23T05:36:11.025Z,27.80
2017-08-23T05:38:38.694Z,28.60
2017-08-23T05:41:06.529Z,29.50
2017-08-23T05:43:36.602Z,30.50
2017-08-23T05:46:04.180Z,31.30
2017-08-23T05:48:31.898Z,32.00
2017-08-23T05:51:00.244Z,33.00
2017-08-23T05:53:27.834Z,33.00
2017-08-23T05:55:55.583Z,33.50
2017-08-23T05:58:23.150Z,34.00
2017-08-23T06:00:50.728Z,34.60
2017-08-23T06:03:18.362Z,35.20
2017-08-23T06:05:45.958Z,35.90
2017-08-23T06:08:13.525Z,36.30
2017-08-23T06:10:41.303Z,36.30
2017-08-23T06:13:08.884Z,36.50
2017-08-23T06:15:36.447Z,36.80
2017-08-23T06:18:04.199Z,37.10
2017-08-23T06:20:31.785Z,37.30
2017-08-23T06:22:59.370Z,37.80
2017-08-23T06:25:26.978Z,37.60
2017-08-23T06:27:54.570Z,37.10
2017-08-23T06:30:22.149Z,36.70
2017-08-23T06:32:49.765Z,36.40
2017-08-23T06:35:17.349Z,35.20
2017-08-23T06:37:44.928Z,33.80
2017-08-23T06:40:13.330Z,30.70
2017-08-23T06:42:40.898Z,30.60
2017-08-23T06:45:08.490Z,29.60
2017-08-23T06:47:36.257Z,28.80
2017-08-23T06:50:03.857Z,28.10
2017-08-23T06:52:31.459Z,27.60
2017-08-23T06:54:59.171Z,27.00
2017-08-23T06:57:26.753Z,26.40
2017-08-23T06:59:54.337Z,26.30
2017-08-23T07:02:21.970Z,26.00
2017-08-23T07:04:49.556Z,25.70
2017-08-23T07:07:17.142Z,25.70
2017-08-23T07:09:44.755Z,25.50
2017-08-23T07:12:12.333Z,25.30
2017-08-23T07:14:39.922Z,25.00
2017-08-23T07:17:07.547Z,24.80
2017-08-23T07:19:35.118Z,24.70
2017-08-23T07:22:02.709Z,24.80
2017-08-23T07:24:30.353Z,24.80
2017-08-23T07:26:57.924Z,24.80
2017-08-23T07:29:25.493Z,24.80
2017-08-23T07:31:53.129Z,24.70
2017-08-23T07:34:20.703Z,24.30
2017-08-23T07:36:48.268Z,23.80
2017-08-23T07:39:15.939Z,23.30
2017-08-23T07:41:43.698Z,23.10
2017-08-23T07:44:11.285Z,23.50
2017-08-23T07:46:38.928Z,23.70
2017-08-23T07:49:06.517Z,24.00
2017-08-23T07:51:34.163Z,24.20
2017-08-23T07:54:01.807Z,24.30
2017-08-23T07:56:29.384Z,24.50
2017-08-23T07:58:56.963Z,24.50
2017-08-23T08:01:24.717Z,24.50
2017-08-23T08:03:52.315Z,24.50
2017-08-23T08:06:19.896Z,24.40
2017-08-23T08:08:47.524Z,24.30
2017-08-23T08:11:15.125Z,24.30
2017-08-23T08:13:42.700Z,24.50
2017-08-23T08:16:10.325Z,24.60
2017-08-23T08:18:37.912Z,24.40
2017-08-23T08:21:05.503Z,24.40
2017-08-23T08:23:33.125Z,24.40
2017-08-23T08:26:00.705Z,24.40
2017-08-23T08:28:28.283Z,24.40
2017-08-23T08:30:55.895Z,24.60
2017-08-23T08:33:23.495Z,24.80
2017-08-23T08:35:51.080Z,24.70
2017-08-23T08:38:19.565Z,24.20
2017-08-23T08:40:47.135Z,24.10
2017-08-23T08:43:14.730Z,24.20
2017-08-23T08:45:42.349Z,24.30
2017-08-23T08:48:09.928Z,24.50
2017-08-23T08:50:37.494Z,24.60
2017-08-23T08:53:05.107Z,24.60
2017-08-23T08:55:32.690Z,24.60
2017-08-23T08:58:01.201Z,24.50
2017-08-23T09:00:28.827Z,24.70
2017-08-23T09:02:56.404Z,24.60
2017-08-23T09:05:23.974Z,24.50
2017-08-23T09:07:51.610Z,24.50
2017-08-23T09:10:19.195Z,24.60
2017-08-23T09:12:46.758Z,24.60
2017-08-23T09:15:14.492Z,24.60
2017-08-23T09:17:42.068Z,24.80
2017-08-23T09:20:09.630Z,24.80
2017-08-23T09:22:37.275Z,24.90
2017-08-23T09:25:04.861Z,24.90
2017-08-23T09:27:32.451Z,24.90
2017-08-23T09:30:00.851Z,24.90
2017-08-23T09:32:28.433Z,24.90
2017-08-23T09:34:55.999Z,24.90
2017-08-23T09:37:24.386Z,25.10
2017-08-23T09:39:51.950Z,25.10
2017-08-23T09:42:19.524Z,25.20
2017-08-23T09:44:47.153Z,25.30
2017-08-23T09:47:14.728Z,25.10
2017-08-23T09:49:42.318Z,24.80
2017-08-23T09:52:10.080Z,24.70
2017-08-23T09:54:37.675Z,24.70
2017-08-23T09:57:05.351Z,24.60
2017-08-23T09:59:33.010Z,24.70
2017-08-23T10:02:00.574Z,24.60
2017-08-23T10:04:28.153Z,24.50
2017-08-23T10:06:55.787Z,24.40
2017-08-23T10:09:23.360Z,24.40
2017-08-23T10:11:50.931Z,24.70
2017-08-23T10:14:18.561Z,24.90
2017-08-23T10:16:46.125Z,25.10
2017-08-23T10:19:13.700Z,25.20
2017-08-23T10:21:41.424Z,25.20
2017-08-23T10:24:09.005Z,25.10
2017-08-23T10:26:36.584Z,25.10
2017-08-23T10:29:04.235Z,24.80
2017-08-23T10:31:31.808Z,24.80
2017-08-23T10:33:59.394Z,24.80
2017-08-23T10:36:27.023Z,23.90
2017-08-23T10:38:54.600Z,23.60
2017-08-23T10:41:22.190Z,23.70
2017-08-23T10:43:49.949Z,23.80
2017-08-23T10:46:17.538Z,23.40
2017-08-23T10:48:45.102Z,23.50
2017-08-23T10:51:12.749Z,23.80
2017-08-23T10:53:40.338Z,23.70
2017-08-23T10:56:07.916Z,23.60
2017-08-23T10:58:35.522Z,23.60
2017-08-23T11:01:03.104Z,23.50
2017-08-23T11:03:30.685Z,23.40
2017-08-23T11:05:58.291Z,23.50
2017-08-23T11:08:25.876Z,23.60
2017-08-23T11:10:53.461Z,23.90
2017-08-23T11:13:21.188Z,24.00
2017-08-23T11:15:48.767Z,24.10
2017-08-23T11:18:16.334Z,24.30
2017-08-23T11:20:43.951Z,23.70
2017-08-23T11:23:11.514Z,23.40
2017-08-23T11:25:39.092Z,23.30
2017-08-23T11:28:06.741Z,23.40
2017-08-23T11:30:34.329Z,23.30
2017-08-23T11:33:01.922Z,23.40
2017-08-23T11:35:29.739Z,23.40
2017-08-23T11:37:57.376Z,23.40
2017-08-23T11:40:24.948Z,23.30
2017-08-23T11:42:52.576Z,23.30
2017-08-23T11:45:21.032Z,23.10
2017-08-23T11:47:48.609Z,23.10
2017-08-23T11:50:17.017Z,23.40
2017-08-23T11:52:44.612Z,23.40
2017-08-23T11:55:12.205Z,23.30
2017-08-23T11:57:39.832Z,23.40
2017-08-23T12:00:07.409Z,23.30
2017-08-23T12:02:35.002Z,23.50
2017-08-23T12:05:02.751Z,23.40
2017-08-23T12:07:30.403Z,23.00
2017-08-23T12:09:58.028Z,23.00
2017-08-23T12:12:25.639Z,23.20
2017-08-23T12:14:53.214Z,23.30
2017-08-23T12:17:20.873Z,23.30
2017-08-23T12:19:48.510Z,23.50
2017-08-23T12:22:16.885Z,22.80
2017-08-23T12:24:44.456Z,22.80
2017-08-23T12:27:12.337Z,22.50
2017-08-23T12:29:40.691Z,22.80
2017-08-23T12:32:08.268Z,22.80
2017-08-23T12:34:35.879Z,22.90
2017-08-23T12:37:03.460Z,22.90
2017-08-23T12:39:31.022Z,22.80
2017-08-23T12:41:58.826Z,22.60
2017-08-23T12:44:26.419Z,22.80
2017-08-23T12:46:53.994Z,22.70
2017-08-23T12:49:21.642Z,22.90
2017-08-23T12:51:49.215Z,23.00
2017-08-23T12:54:16.782Z,23.10
2017-08-23T12:56:44.411Z,23.20
2017-08-23T12:59:12.011Z,23.30
2017-08-23T13:01:40.359Z,23.40
2017-08-23T13:04:08.181Z,23.40
2017-08-23T13:06:35.772Z,23.40
2017-08-23T13:09:04.326Z,23.50
2017-08-23T13:11:32.730Z,23.50
2017-08-23T13:14:00.307Z,23.40
2017-08-23T13:16:27.882Z,23.50
2017-08-23T13:18:55.505Z,23.50
2017-08-23T13:21:23.115Z,23.50
2017-08-23T13:23:50.699Z,23.60
2017-08-23T13:26:18.345Z,23.60
2017-08-23T13:28:45.932Z,23.30
2017-08-23T13:31:14.264Z,23.40
2017-08-23T13:33:41.895Z,23.40
2017-08-23T13:36:09.481Z,23.50
2017-08-23T13:38:37.374Z,23.40
2017-08-23T13:41:05.011Z,23.00
2017-08-23T13:43:32.602Z,22.30
2017-08-23T13:46:00.181Z,22.00
2017-08-23T13:48:27.820Z,22.10
2017-08-23T13:50:55.387Z,22.10
2017-08-23T13:53:22.982Z,22.00
2017-08-23T13:55:51.552Z,22.10
2017-08-23T13:58:19.920Z,22.30
2017-08-23T14:00:47.510Z,22.30
2017-08-23T14:03:15.169Z,22.30
2017-08-23T14:05:42.928Z,22.00
2017-08-23T14:08:10.504Z,22.00
2017-08-23T14:10:38.127Z,22.00
2017-08-23T14:13:05.801Z,21.90
2017-08-23T14:15:34.161Z,22.20
2017-08-23T14:18:01.920Z,22.10
2017-08-23T14:20:29.514Z,22.40
2017-08-23T14:22:57.953Z,22.10
2017-08-23T14:25:25.758Z,22.20
2017-08-23T14:27:53.387Z,22.30
2017-08-23T14:30:21.098Z,22.50
2017-08-23T14:32:49.149Z,22.60
2017-08-23T14:35:17.689Z,22.70
2017-08-23T14:37:46.865Z,22.80
2017-08-23T14:40:16.145Z,22.90
2017-08-23T14:42:44.248Z,23.00
2017-08-23T14:45:11.877Z,23.10
2017-08-23T14:47:39.667Z,23.20
2017-08-23T14:50:07.486Z,23.10
2017-08-23T14:52:36.257Z,23.10
2017-08-23T14:55:03.956Z,23.00
2017-08-23T14:57:31.650Z,23.00
2017-08-23T14:59:59.400Z,22.90
2017-08-23T15:02:27.100Z,22.70
2017-08-23T15:04:55.293Z,22.80
2017-08-23T15:07:22.910Z,22.80
2017-08-23T15:09:52.820Z,22.80
2017-08-23T15:12:20.458Z,22.80
2017-08-23T15:14:48.148Z,22.60
2017-08-23T15:17:15.985Z,22.50
2017-08-23T15:19:47.155Z,22.50
2017-08-23T15:22:15.693Z,22.40
2017-08-23T15:24:43.365Z,22.30
2017-08-23T15:27:11.072Z,22.20
2017-08-23T15:29:38.863Z,22.30
2017-08-23T15:32:07.619Z,22.40
2017-08-23T15:34:35.281Z,22.50
2017-08-23T15:37:02.943Z,22.60
2017-08-23T15:39:30.942Z,22.70
2017-08-23T15:41:59.507Z,22.80
2017-08-23T15:44:28.278Z,22.80
2017-08-23T15:46:56.701Z,22.70
2017-08-23T15:49:25.318Z,22.50
2017-08-23T15:51:53.086Z,22.40
2017-08-23T15:54:20.712Z,22.40
2017-08-23T15:56:48.435Z,22.50
2017-08-23T15:59:16.383Z,22.50
2017-08-23T16:01:44.034Z,22.50
2017-08-23T16:04:11.684Z,22.50
2017-08-23T16:06:39.388Z,22.50
2017-08-23T16:09:07.002Z,22.60
2017-08-23T16:11:34.597Z,22.50
2017-08-23T16:14:02.251Z,22.50
2017-08-23T16:16:29.867Z,22.40
2017-08-23T16:18:57.497Z,22.20
2017-08-23T16:21:25.213Z,22.10
2017-08-23T16:23:52.834Z,22.10
2017-08-23T16:26:20.471Z,22.00
2017-08-23T16:28:48.130Z,22.00
2017-08-23T16:31:15.758Z,21.90
2017-08-23T16:33:43.375Z,21.80
2017-08-23T16:36:11.080Z,21.80
2017-08-23T16:38:38.855Z,21.80
2017-08-23T16:41:06.476Z,21.70
2017-08-23T16:43:34.244Z,21.70
2017-08-23T16:46:02.714Z,21.70
2017-08-23T16:48:30.369Z,21.70
2017-08-23T16:50:58.067Z,21.60
2017-08-23T16:53:25.862Z,21.50
2017-08-23T16:55:53.529Z,21.40
2017-08-23T16:58:21.251Z,21.30
2017-08-23T17:00:48.943Z,21.20
2017-08-23T17:03:16.588Z,21.20
2017-08-23T17:05:44.385Z,21.10
2017-08-23T17:08:12.065Z,21.00
2017-08-23T17:10:39.724Z,21.00
2017-08-23T17:13:07.530Z,21.00
2017-08-23T17:15:35.134Z,20.90
2017-08-23T17:18:02.729Z,20.90
2017-08-23T17:20:30.429Z,20.90
2017-08-23T17:22:58.049Z,20.90
2017-08-23T17:25:25.715Z,20.90
2017-08-23T17:27:53.498Z,20.90
2017-08-23T17:30:21.135Z,20.80
2017-08-23T17:32:48.724Z,20.70
2017-08-23T17:35:17.143Z,20.60
2017-08-23T17:37:44.732Z,20.60
2017-08-23T17:40:12.329Z,20.50
2017-08-23T17:42:39.958Z,20.40
2017-08-23T17:45:07.721Z,20.40
2017-08-23T17:47:35.298Z,21.00
2017-08-23T17:50:02.918Z,20.30
2017-08-23T17:52:30.495Z,20.30
2017-08-23T17:54:58.062Z,20.20
2017-08-23T17:57:25.842Z,20.20
2017-08-23T17:59:53.493Z,20.10
2017-08-23T18:02:21.062Z,20.10
2017-08-23T18:04:48.784Z,20.00
2017-08-23T18:07:16.364Z,19.90
2017-08-23T18:09:43.958Z,19.90
2017-08-23T18:12:11.601Z,19.80
2017-08-23T18:14:39.167Z,19.70
2017-08-23T18:17:06.745Z,19.70
2017-08-23T18:19:34.384Z,19.60
2017-08-23T18:22:02.724Z,19.50
2017-08-23T18:24:30.294Z,19.50
2017-08-23T18:26:57.958Z,19.50
2017-08-23T18:29:25.557Z,19.40
2017-08-23T18:31:53.154Z,19.30
2017-08-23T18:34:20.799Z,19.20
2017-08-23T18:36:48.371Z,19.20
2017-08-23T18:39:15.953Z,19.10
2017-08-23T18:41:43.728Z,19.10
2017-08-23T18:44:11.329Z,19.00
2017-08-23T18:46:38.920Z,19.00
2017-08-23T18:49:06.746Z,19.00
2017-08-23T18:51:34.346Z,19.00
2017-08-23T18:54:01.933Z,19.00
2017-08-23T18:56:29.805Z,18.90
2017-08-23T18:58:57.379Z,18.90
2017-08-23T19:01:25.911Z,18.90
2017-08-23T19:03:54.115Z,18.90
2017-08-23T19:06:21.695Z,18.90
2017-08-23T19:08:49.824Z,18.80
2017-08-23T19:11:17.852Z,18.80
2017-08-23T19:13:45.549Z,18.80
2017-08-23T19:16:13.268Z,18.70
2017-08-23T19:18:41.214Z,18.70
2017-08-23T19:21:09.606Z,18.70
2017-08-23T19:23:37.290Z,18.60
2017-08-23T19:26:05.250Z,18.50
2017-08-23T19:28:33.327Z,18.50
2017-08-23T19:31:01.280Z,18.50
2017-08-23T19:33:29.213Z,18.40
2017-08-23T19:35:57.092Z,18.40
2017-08-23T19:38:24.738Z,18.40
2017-08-23T19:40:52.384Z,18.40
2017-08-23T19:43:20.112Z,18.40
2017-08-23T19:45:47.695Z,18.40
2017-08-23T19:48:15.505Z,18.40
2017-08-23T19:50:43.094Z,18.30
2017-08-23T19:53:10.676Z,18.30
2017-08-23T19:55:38.407Z,18.20
2017-08-23T19:58:05.999Z,18.20
2017-08-23T20:00:33.571Z,18.10
2017-08-23T20:03:01.198Z,18.10
2017-08-23T20:05:28.803Z,18.10
2017-08-23T20:07:56.397Z,18.10
2017-08-23T20:10:24.031Z,18.10
2017-08-23T20:12:51.609Z,18.00
2017-08-23T20:15:19.248Z,18.00
2017-08-23T20:17:46.877Z,16.60
2017-08-23T20:20:14.482Z,17.90
2017-08-23T20:22:42.067Z,17.90
2017-08-23T20:25:09.956Z,17.80
2017-08-23T20:27:37.545Z,17.80
2017-08-23T20:30:05.115Z,17.80
2017-08-23T20:32:32.796Z,17.80
2017-08-23T20:35:01.267Z,17.80
2017-08-23T20:37:28.869Z,17.80
2017-08-23T20:39:56.506Z,17.70
2017-08-23T20:42:24.094Z,17.60
2017-08-23T20:44:51.680Z,17.60
2017-08-23T20:47:19.313Z,17.60
2017-08-23T20:49:46.896Z,17.60
2017-08-23T20:52:14.489Z,17.60
2017-08-23T20:54:42.116Z,17.60
2017-08-23T20:57:09.711Z,17.50
2017-08-23T20:59:37.296Z,17.50
2017-08-23T21:02:04.929Z,17.50
2017-08-23T21:04:32.576Z,17.40
2017-08-23T21:07:00.165Z,17.40
2017-08-23T21:09:27.893Z,17.40
2017-08-23T21:11:55.480Z,17.30
2017-08-23T21:14:23.061Z,17.30
2017-08-23T21:16:50.698Z,17.30
2017-08-23T21:19:18.280Z,17.20
2017-08-23T21:21:45.864Z,17.20
2017-08-23T21:24:13.487Z,17.20
2017-08-23T21:26:41.066Z,17.20
2017-08-23T21:29:08.666Z,17.20
2017-08-23T21:31:36.333Z,17.20
2017-08-23T21:34:03.941Z,17.10
2017-08-23T21:36:31.515Z,17.00
2017-08-23T21:38:59.142Z,17.00
2017-08-23T21:41:26.752Z,17.00
2017-08-23T21:43:54.322Z,17.00
2017-08-23T21:46:21.940Z,17.00
2017-08-23T21:48:49.535Z,17.00
2017-08-23T21:51:17.135Z,17.00
2017-08-23T21:53:44.776Z,16.90
2017-08-23T21:56:12.352Z,16.90
2017-08-23T21:58:39.935Z,16.90
2017-08-23T22:01:07.666Z,16.90
2017-08-23T22:03:35.263Z,16.90
2017-08-23T22:06:02.914Z,16.80
2017-08-23T22:08:30.573Z,16.80
2017-08-23T22:10:58.148Z,16.80
2017-08-23T22:13:25.723Z,16.80
2017-08-23T22:15:53.357Z,16.70
2017-08-23T22:18:21.705Z,16.70
2017-08-23T22:20:49.273Z,16.70
2017-08-23T22:23:16.885Z,16.70
2017-08-23T22:25:44.469Z,16.70
2017-08-23T22:28:12.063Z,16.60
2017-08-23T22:30:39.955Z,16.60
2017-08-23T22:33:07.540Z,16.60
2017-08-23T22:35:35.107Z,16.50
2017-08-23T22:38:02.739Z,16.50
2017-08-23T22:40:30.324Z,16.50
2017-08-23T22:42:58.662Z,16.50
2017-08-23T22:45:26.419Z,16.40
2017-08-23T22:47:54.012Z,16.50
2017-08-23T22:50:21.600Z,16.40
2017-08-23T22:52:49.242Z,16.40
2017-08-23T22:55:16.819Z,16.40
2017-08-23T22:57:44.399Z,16.40
2017-08-23T23:00:12.298Z,16.40
2017-08-23T23:02:39.889Z,16.40
2017-08-23T23:05:07.476Z,16.30
2017-08-23T23:07:35.263Z,16.30
2017-08-23T23:10:02.864Z,16.30
2017-08-23T23:12:31.221Z,16.20
2017-08-23T23:14:58.847Z,16.10
2017-08-23T23:17:26.429Z,16.10
2017-08-23T23:19:54.013Z,16.10
2017-08-23T23:22:21.780Z,16.10
2017-08-23T23:24:49.369Z,16.00
2017-08-23T23:27:16.958Z,16.00
2017-08-23T23:29:44.586Z,16.00
2017-08-23T23:32:12.167Z,16.00
2017-08-23T23:34:39.771Z,15.90
2017-08-23T23:37:07.395Z,16.00
2017-08-23T23:39:34.982Z,16.00
2017-08-23T23:42:02.559Z,16.10
2017-08-23T23:44:30.225Z,16.10
2017-08-23T23:46:57.791Z,16.10
2017-08-23T23:49:25.368Z,16.10
2017-08-23T23:51:53.192Z,16.20
2017-08-23T23:54:20.762Z,16.20
2017-08-23T23:56:48.353Z,16.30
2017-08-23T23:59:16.067Z,16.30
